createdAt,value
2023-03-06T00:03:22.406Z,7.40
2023-03-06T00:07:29.943Z,6.80
2023-03-06T00:11:40.262Z,6.20
2023-03-06T00:15:49.914Z,6.10
2023-03-06T00:19:59.460Z,6.20
2023-03-06T00:24:07.520Z,7.20
2023-03-06T00:28:16.194Z,7.10
2023-03-06T00:32:27.130Z,6.30
2023-03-06T00:36:36.177Z,7.90
2023-03-06T00:40:44.207Z,9.80
2023-03-06T00:44:52.404Z,7.70
2023-03-06T00:49:00.173Z,6.70
2023-03-06T00:53:08.283Z,6.60
2023-03-06T00:57:16.486Z,6.40
2023-03-06T01:01:24.700Z,6.50
2023-03-06T01:05:33.755Z,6.00
2023-03-06T01:09:43.582Z,8.80
2023-03-06T01:13:51.901Z,9.90
2023-03-06T01:18:00.044Z,8.00
2023-03-06T01:22:08.328Z,6.90
2023-03-06T01:26:16.277Z,7.60
2023-03-06T01:30:24.720Z,7.60
2023-03-06T01:34:32.182Z,6.20
2023-03-06T01:38:40.228Z,6.90
2023-03-06T01:42:49.278Z,10.40
2023-03-06T01:46:57.041Z,11.40
2023-03-06T01:51:04.820Z,9.80
2023-03-06T01:55:14.683Z,7.80
2023-03-06T01:59:23.642Z,7.50
2023-03-06T02:03:32.281Z,8.40
2023-03-06T02:07:40.529Z,7.50
2023-03-06T02:11:48.261Z,6.80
2023-03-06T02:15:55.954Z,9.60
2023-03-06T02:20:10.423Z,9.50
2023-03-06T02:24:28.846Z,8.60
2023-03-06T02:28:36.652Z,6.90
2023-03-06T02:32:44.793Z,6.10
2023-03-06T02:36:54.191Z,7.80
2023-03-06T02:41:02.244Z,7.10
2023-03-06T02:45:14.539Z,10.70
2023-03-06T02:49:22.726Z,12.40
2023-03-06T02:53:31.938Z,12.10
2023-03-06T02:57:39.499Z,14.00
2023-03-06T03:01:48.109Z,12.30
2023-03-06T03:05:56.040Z,9.40
2023-03-06T03:10:05.106Z,7.70
2023-03-06T03:14:17.154Z,7.40
2023-03-06T03:18:25.821Z,12.00
2023-03-06T03:22:34.465Z,13.00
2023-03-06T03:26:42.374Z,10.40
2023-03-06T03:30:50.189Z,7.20
2023-03-06T03:34:59.673Z,6.60
2023-03-06T03:39:07.307Z,7.20
2023-03-06T03:43:16.433Z,6.70
2023-03-06T03:47:25.265Z,9.10
2023-03-06T03:51:33.034Z,9.50
2023-03-06T03:55:41.002Z,9.80
2023-03-06T03:59:48.520Z,8.50
2023-03-06T04:03:57.099Z,7.70
2023-03-06T04:08:05.577Z,7.50
2023-03-06T04:12:13.328Z,7.60
2023-03-06T04:16:22.708Z,9.80
2023-03-06T04:20:30.796Z,11.30
2023-03-06T04:24:38.150Z,9.30
2023-03-06T04:28:45.726Z,7.80
2023-03-06T04:32:53.853Z,7.60
2023-03-06T04:37:03.913Z,8.00
2023-03-06T04:41:12.065Z,7.80
2023-03-06T04:45:21.156Z,10.90
2023-03-06T04:49:29.159Z,10.40
2023-03-06T04:53:36.929Z,8.90
2023-03-06T04:57:46.278Z,8.00
2023-03-06T05:01:54.386Z,7.40
2023-03-06T05:06:02.557Z,6.90
2023-03-06T05:10:15.746Z,6.80
2023-03-06T05:14:23.396Z,9.80
2023-03-06T05:18:32.181Z,9.90
2023-03-06T05:22:40.234Z,9.00
2023-03-06T05:26:47.687Z,8.20
2023-03-06T05:30:57.283Z,8.50
2023-03-06T05:35:05.859Z,7.70
2023-03-06T05:39:14.842Z,7.40
2023-03-06T05:43:22.732Z,11.80
2023-03-06T05:47:30.663Z,10.00
2023-03-06T05:51:41.841Z,8.80
2023-03-06T05:55:58.717Z,8.80
2023-03-06T06:00:11.840Z,8.70
2023-03-06T06:04:19.837Z,7.10
2023-03-06T06:08:29.610Z,6.60
2023-03-06T06:12:45.467Z,6.30
2023-03-06T06:16:58.052Z,7.70
2023-03-06T06:21:10.274Z,8.40
2023-03-06T06:25:19.672Z,7.60
2023-03-06T06:29:31.646Z,6.40
2023-03-06T06:33:46.014Z,6.10
2023-03-06T06:37:57.170Z,6.70
2023-03-06T06:42:26.598Z,7.00
2023-03-06T06:47:18.199Z,8.30
2023-03-06T06:51:03.065Z,12.80
2023-03-06T06:55:12.199Z,11.80
2023-03-06T06:59:20.586Z,12.40
2023-03-06T07:03:29.519Z,12.00
2023-03-06T07:07:40.630Z,11.20
2023-03-06T07:11:54.089Z,12.80
2023-03-06T07:16:01.682Z,12.80
2023-03-06T07:20:14.198Z,11.90
2023-03-06T07:24:21.912Z,14.50
2023-03-06T07:28:33.692Z,13.90
2023-03-06T07:32:51.686Z,14.10
2023-03-06T07:37:05.343Z,15.10
2023-03-06T07:41:14.069Z,14.60
2023-03-06T07:45:21.936Z,15.00
2023-03-06T07:49:31.986Z,14.70
2023-03-06T07:53:40.274Z,14.30
2023-03-06T07:57:52.871Z,13.60
2023-03-06T08:02:04.935Z,16.00
2023-03-06T08:06:17.812Z,14.70
2023-03-06T08:10:30.121Z,12.50
2023-03-06T08:14:38.720Z,12.50
2023-03-06T08:18:58.263Z,12.50
2023-03-06T08:23:05.666Z,12.40
2023-03-06T08:27:13.461Z,12.60
2023-03-06T08:31:28.531Z,12.00
2023-03-06T08:35:37.037Z,12.30
2023-03-06T08:39:52.441Z,11.00
2023-03-06T08:44:02.269Z,12.80
2023-03-06T08:48:11.470Z,11.60
2023-03-06T08:52:20.357Z,10.90
2023-03-06T08:56:31.719Z,11.10
2023-03-06T09:00:43.866Z,11.80
2023-03-06T09:04:54.185Z,11.60
2023-03-06T09:09:02.476Z,10.70
2023-03-06T09:13:12.389Z,10.70
2023-03-06T09:17:19.980Z,10.70
2023-03-06T09:21:29.635Z,10.30
2023-03-06T09:25:37.773Z,10.10
2023-03-06T09:29:45.893Z,11.60
2023-03-06T09:33:53.338Z,11.50
2023-03-06T09:38:01.077Z,9.20
2023-03-06T09:42:15.455Z,9.40
2023-03-06T09:46:32.834Z,9.90
2023-03-06T09:50:48.008Z,10.50
2023-03-06T09:54:59.248Z,9.00
2023-03-06T09:59:13.406Z,10.50
2023-03-06T10:03:29.012Z,11.10
2023-03-06T10:07:46.069Z,10.10
2023-03-06T10:11:58.269Z,11.10
2023-03-06T10:16:13.826Z,9.40
2023-03-06T10:20:25.707Z,9.40
2023-03-06T10:24:45.255Z,9.60
2023-03-06T10:29:00.199Z,10.20
2023-03-06T10:33:16.204Z,9.40
2023-03-06T10:37:24.990Z,10.00
2023-03-06T10:41:35.946Z,8.20
2023-03-06T10:45:52.267Z,9.40
2023-03-06T10:50:07.327Z,8.20
2023-03-06T10:54:22.623Z,8.30
2023-03-06T10:58:32.566Z,8.10
2023-03-06T11:02:41.692Z,8.30
2023-03-06T11:06:52.183Z,8.50
2023-03-06T11:11:04.733Z,8.30
2023-03-06T11:15:21.073Z,9.00
2023-03-06T11:19:33.102Z,8.80
2023-03-06T11:23:45.642Z,9.00
2023-03-06T11:27:58.596Z,8.70
2023-03-06T11:32:12.748Z,8.60
2023-03-06T11:36:27.160Z,8.00
2023-03-06T11:40:37.937Z,8.10
2023-03-06T11:44:57.547Z,9.10
2023-03-06T11:49:14.621Z,8.20
2023-03-06T11:53:25.222Z,7.40
2023-03-06T11:57:41.001Z,7.40
2023-03-06T12:01:53.929Z,9.20
2023-03-06T12:06:06.062Z,9.90
2023-03-06T12:10:19.270Z,9.00
2023-03-06T12:14:36.014Z,8.30
2023-03-06T12:18:54.289Z,8.30
2023-03-06T12:23:15.099Z,8.60
2023-03-06T12:27:30.183Z,8.20
2023-03-06T12:31:54.366Z,8.40
2023-03-06T12:36:10.507Z,7.80
2023-03-06T12:40:43.875Z,8.00
2023-03-06T12:45:08.590Z,7.80
2023-03-06T12:49:32.033Z,7.00
2023-03-06T12:53:43.480Z,6.90
2023-03-06T12:57:52.802Z,7.50
2023-03-06T13:02:18.231Z,6.20
2023-03-06T13:06:50.751Z,6.90
2023-03-06T13:11:30.496Z,6.50
2023-03-06T13:15:49.515Z,5.20
2023-03-06T13:20:34.942Z,5.60
2023-03-06T13:24:45.241Z,5.40
2023-03-06T13:28:54.266Z,7.10
2023-03-06T13:33:01.930Z,8.50
2023-03-06T13:37:43.475Z,8.10
2023-03-06T13:41:59.980Z,5.20
2023-03-06T13:46:26.299Z,6.70
2023-03-06T13:50:45.004Z,6.60
2023-03-06T13:55:00.345Z,7.80
2023-03-06T13:59:29.412Z,7.70
2023-03-06T14:04:10.153Z,6.80
2023-03-06T14:08:19.988Z,6.90
2023-03-06T14:12:30.564Z,7.20
2023-03-06T14:16:49.714Z,6.80
2023-03-06T14:21:02.037Z,7.00
2023-03-06T14:25:18.984Z,8.20
2023-03-06T14:29:28.940Z,8.20
2023-03-06T14:33:44.797Z,7.40
2023-03-06T14:37:53.906Z,6.80
2023-03-06T14:42:10.667Z,8.50
2023-03-06T14:46:22.823Z,10.40
2023-03-06T14:50:31.982Z,8.30
2023-03-06T14:54:39.652Z,9.40
2023-03-06T14:58:56.313Z,9.20
2023-03-06T15:03:04.664Z,9.10
2023-03-06T15:07:15.523Z,8.60
2023-03-06T15:11:23.562Z,9.30
2023-03-06T15:15:34.211Z,9.40
2023-03-06T15:19:42.986Z,9.00
2023-03-06T15:23:51.844Z,9.10
2023-03-06T15:28:01.309Z,8.60
2023-03-06T15:32:33.179Z,8.80
2023-03-06T15:36:42.495Z,8.70
2023-03-06T15:40:59.651Z,9.30
2023-03-06T15:45:17.073Z,10.60
2023-03-06T15:49:25.157Z,9.30
2023-03-06T15:53:32.592Z,9.90
2023-03-06T15:57:41.344Z,10.10
2023-03-06T16:01:49.081Z,8.90
2023-03-06T16:05:56.852Z,8.80
2023-03-06T16:10:05.269Z,10.00
2023-03-06T16:14:26.103Z,11.20
2023-03-06T16:18:34.305Z,10.10
2023-03-06T16:22:42.278Z,11.20
2023-03-06T16:26:52.746Z,14.60
2023-03-06T16:31:00.796Z,14.40
2023-03-06T16:35:09.673Z,13.70
2023-03-06T16:39:18.800Z,14.10
2023-03-06T16:43:26.509Z,13.50
2023-03-06T16:47:33.917Z,13.00
2023-03-06T16:51:41.814Z,15.30
2023-03-06T16:55:52.448Z,15.20
2023-03-06T17:00:11.492Z,15.80
2023-03-06T17:04:19.569Z,16.10
2023-03-06T17:08:27.389Z,17.00
2023-03-06T17:12:36.163Z,19.40
2023-03-06T17:16:46.723Z,18.40
2023-03-06T17:20:55.517Z,15.70
2023-03-06T17:25:04.972Z,16.60
2023-03-06T17:29:13.010Z,16.00
2023-03-06T17:33:20.700Z,18.30
2023-03-06T17:37:29.320Z,21.30
2023-03-06T17:41:37.406Z,23.20
2023-03-06T17:45:45.701Z,25.90
2023-03-06T17:49:53.615Z,24.20
2023-03-06T17:54:02.014Z,22.30
2023-03-06T17:58:12.317Z,28.50
2023-03-06T18:02:20.689Z,27.90
2023-03-06T18:06:30.542Z,24.80
2023-03-06T18:10:42.529Z,25.00
2023-03-06T18:14:50.930Z,24.20
2023-03-06T18:18:59.762Z,25.30
2023-03-06T18:23:07.889Z,28.50
2023-03-06T18:27:15.908Z,18.50
2023-03-06T18:31:25.153Z,14.20
2023-03-06T18:35:34.091Z,15.50
2023-03-06T18:39:41.627Z,14.00
2023-03-06T18:43:54.494Z,11.20
2023-03-06T18:48:05.332Z,12.90
2023-03-06T18:52:14.120Z,14.10
2023-03-06T18:56:24.122Z,12.50
2023-03-06T19:00:32.155Z,13.10
2023-03-06T19:04:40.749Z,13.80
2023-03-06T19:08:48.661Z,20.40
2023-03-06T19:12:56.926Z,21.80
2023-03-06T19:17:04.818Z,22.10
2023-03-06T19:21:14.758Z,27.40
2023-03-06T19:25:23.084Z,30.60
2023-03-06T19:29:32.718Z,27.20
2023-03-06T19:33:40.590Z,24.70
2023-03-06T19:37:48.522Z,26.60
2023-03-06T19:41:57.027Z,17.10
2023-03-06T19:46:05.154Z,13.70
2023-03-06T19:50:14.554Z,15.20
2023-03-06T19:54:25.162Z,14.20
2023-03-06T19:58:33.494Z,15.50
2023-03-06T20:02:41.704Z,17.00
2023-03-06T20:06:53.604Z,17.70
2023-03-06T20:11:01.231Z,18.40
2023-03-06T20:15:13.257Z,16.90
2023-03-06T20:19:22.826Z,14.30
2023-03-06T20:23:32.735Z,13.40
2023-03-06T20:27:41.086Z,15.20
2023-03-06T20:31:50.726Z,16.40
2023-03-06T20:35:59.088Z,16.40
2023-03-06T20:40:08.747Z,14.10
2023-03-06T20:44:18.348Z,12.70
2023-03-06T20:48:26.790Z,13.40
2023-03-06T20:52:35.198Z,10.30
2023-03-06T20:56:46.237Z,13.60
2023-03-06T21:00:53.705Z,14.50
2023-03-06T21:05:01.829Z,16.20
2023-03-06T21:09:10.177Z,15.00
2023-03-06T21:13:17.559Z,13.50
2023-03-06T21:17:26.036Z,11.70
2023-03-06T21:21:34.976Z,12.70
2023-03-06T21:25:50.569Z,12.80
2023-03-06T21:29:58.809Z,15.20
2023-03-06T21:34:06.905Z,16.40
2023-03-06T21:38:15.724Z,15.50
2023-03-06T21:42:23.577Z,14.50
2023-03-06T21:46:31.205Z,13.90
2023-03-06T21:50:39.409Z,15.60
2023-03-06T21:54:47.463Z,20.40
2023-03-06T21:58:55.871Z,19.10
2023-03-06T22:03:04.813Z,20.10
2023-03-06T22:07:12.364Z,19.00
2023-03-06T22:11:21.659Z,16.20
2023-03-06T22:15:29.661Z,15.40
2023-03-06T22:19:37.628Z,15.40
2023-03-06T22:23:45.685Z,12.60
2023-03-06T22:27:52.931Z,12.20
2023-03-06T22:32:00.636Z,15.60
2023-03-06T22:36:10.910Z,18.80
2023-03-06T22:40:19.545Z,18.00
2023-03-06T22:44:27.168Z,14.10
2023-03-06T22:48:36.290Z,13.90
2023-03-06T22:52:44.394Z,14.70
2023-03-06T22:56:53.201Z,15.20
2023-03-06T23:01:01.857Z,17.50
2023-03-06T23:05:11.363Z,17.10
2023-03-06T23:09:21.478Z,15.40
2023-03-06T23:13:29.160Z,17.60
2023-03-06T23:17:37.013Z,18.10
2023-03-06T23:21:45.763Z,20.40
2023-03-06T23:25:53.873Z,24.30
2023-03-06T23:30:01.997Z,26.10
2023-03-06T23:34:11.737Z,23.20
2023-03-06T23:38:19.758Z,22.40
2023-03-06T23:42:27.541Z,20.80
2023-03-06T23:46:34.917Z,23.60
2023-03-06T23:50:44.053Z,23.70
2023-03-06T23:54:53.060Z,24.10
2023-03-06T23:59:01.896Z,22.50
